Time;durP1;ratioP1;P1;durP2;ratioP2;P2;SDS_P1;SDS_P2;PMS_P1;PMS_P2;Temp;Humidity;BMP_temperature;BMP_pressure;BME280_temperature;BME280_humidity;BME280_pressure;Samples;Min_cycle;Max_cycle;Signal;HPM_P1;HPM_P2
2021/07/11 00:01:41;;;;;;;28.90;26.37;;;16.90;99.90;;;;;;5017212;28;20280;-63
2021/07/11 00:04:07;;;;;;;27.90;25.40;;;16.90;99.90;;;;;;5030156;28;20193;-62
2021/07/11 00:06:36;;;;;;;27.70;25.20;;;16.80;99.90;;;;;;5030765;28;20416;-64
2021/07/11 00:09:06;;;;;;;27.17;24.67;;;16.80;99.90;;;;;;5024901;28;20186;-63
2021/07/11 00:11:32;;;;;;;28.13;25.50;;;16.80;99.90;;;;;;5029981;28;20420;-63
2021/07/11 00:14:01;;;;;;;28.50;25.90;;;16.70;99.90;;;;;;5010732;28;20439;-64
2021/07/11 00:16:27;;;;;;;27.80;25.40;;;16.70;99.90;;;;;;5030590;28;20517;-62
2021/07/11 00:18:53;;;;;;;27.97;25.47;;;16.70;99.90;;;;;;5028330;28;20457;-61
2021/07/11 00:21:18;;;;;;;28.07;25.67;;;16.60;99.90;;;;;;5030282;28;20424;-62
2021/07/11 00:23:44;;;;;;;28.97;26.37;;;16.60;99.90;;;;;;5030649;28;20173;-62
2021/07/11 00:26:10;;;;;;;29.77;27.07;;;16.60;99.90;;;;;;5030126;28;20639;-62
2021/07/11 00:28:36;;;;;;;29.20;26.60;;;16.60;99.90;;;;;;5026199;28;20443;-63
2021/07/11 00:31:01;;;;;;;28.13;25.60;;;16.50;99.90;;;;;;5029745;28;20216;-61
2021/07/11 00:33:27;;;;;;;30.00;27.30;;;16.50;99.90;;;;;;5028155;28;20180;-60
2021/07/11 00:35:52;;;;;;;28.70;26.20;;;16.50;99.90;;;;;;5029910;28;20166;-62
2021/07/11 00:38:18;;;;;;;28.67;26.07;;;16.40;99.90;;;;;;5029532;28;20274;-62
2021/07/11 00:40:43;;;;;;;28.33;25.93;;;16.50;99.90;;;;;;5029412;28;20571;-61
2021/07/11 00:43:10;;;;;;;28.93;26.43;;;16.50;99.90;;;;;;5023721;28;20568;-69
2021/07/11 00:45:35;;;;;;;29.70;27.10;;;16.40;99.90;;;;;;5029717;28;20189;-62
2021/07/11 00:48:01;;;;;;;29.20;26.60;;;16.40;99.90;;;;;;5029849;28;20424;-62
2021/07/11 00:50:26;;;;;;;28.10;25.70;;;16.40;99.90;;;;;;5029516;28;20243;-63
2021/07/11 00:52:52;;;;;;;27.70;25.30;;;16.30;99.90;;;;;;5027692;28;20263;-62
2021/07/11 00:55:18;;;;;;;27.33;24.83;;;16.30;99.90;;;;;;5029420;28;20190;-63
2021/07/11 00:57:43;;;;;;;28.50;26.00;;;16.30;99.90;;;;;;5027499;28;20179;-62
2021/07/11 01:00:11;;;;;;;28.43;25.93;;;16.20;99.90;;;;;;5023833;28;20261;-64
2021/07/11 01:03:07;;;;;;;28.53;25.93;;;16.20;99.90;;;;;;5027746;28;20240;-63
2021/07/11 01:05:34;;;;;;;27.33;24.90;;;16.30;99.90;;;;;;5027606;28;20419;-63
2021/07/11 01:08:13;;;;;;;27.60;25.17;;;16.30;99.90;;;;;;5029687;28;20418;-61
2021/07/11 01:10:44;;;;;;;28.23;25.70;;;16.30;99.90;;;;;;5028832;28;21027;-63
2021/07/11 01:13:13;;;;;;;27.33;25.03;;;16.20;99.90;;;;;;5029099;28;20428;-61
2021/07/11 01:15:44;;;;;;;28.60;26.00;;;16.10;99.90;;;;;;5028177;28;20424;-61
2021/07/11 01:18:11;;;;;;;29.33;26.60;;;16.20;99.90;;;;;;5022137;28;20544;-61
2021/07/11 01:20:52;;;;;;;26.63;24.40;;;16.10;99.90;;;;;;5028508;28;20422;-62
2021/07/11 01:23:51;;;;;;;26.65;24.27;;;16.10;99.90;;;;;;5028505;28;20436;-63
2021/07/11 01:26:18;;;;;;;26.57;24.17;;;16.10;99.90;;;;;;5029227;28;20763;-67
2021/07/11 01:28:47;;;;;;;27.50;24.90;;;16.10;99.90;;;;;;5027946;28;20437;-62
2021/07/11 01:31:14;;;;;;;27.27;24.77;;;16.10;99.90;;;;;;5011175;28;20471;-65
2021/07/11 01:33:42;;;;;;;28.30;25.70;;;16.20;99.90;;;;;;5027728;28;20448;-63
2021/07/11 01:36:10;;;;;;;28.07;25.37;;;16.20;99.90;;;;;;5028133;28;21167;-62
2021/07/11 01:38:37;;;;;;;29.60;26.70;;;16.20;99.90;;;;;;5026873;28;20429;-63
2021/07/11 01:41:04;;;;;;;27.00;24.70;;;16.20;99.90;;;;;;5029124;28;20461;-63
2021/07/11 01:43:30;;;;;;;26.53;24.10;;;16.10;99.90;;;;;;5028920;28;20423;-62
2021/07/11 01:45:56;;;;;;;27.50;25.00;;;16.10;99.90;;;;;;5028229;28;20433;-62
2021/07/11 01:48:22;;;;;;;27.47;24.93;;;16.10;99.90;;;;;;5028033;28;20415;-62
2021/07/11 01:50:54;;;;;;;28.20;25.47;;;16.10;99.90;;;;;;5018360;28;20475;-68
2021/07/11 01:53:25;;;;;;;27.97;25.47;;;16.10;99.90;;;;;;5028451;28;20203;-62
2021/07/11 01:55:52;;;;;;;27.60;25.10;;;16.00;99.90;;;;;;5027687;28;20441;-67
2021/07/11 01:58:18;;;;;;;29.00;26.30;;;16.00;99.90;;;;;;5030651;28;20506;-57
2021/07/11 02:00:43;;;;;;;28.07;25.47;;;16.00;99.90;;;;;;5019581;28;20522;-63
2021/07/11 02:03:24;;;;;;;25.23;23.10;;;15.90;99.90;;;;;;5029948;28;20238;-65
2021/07/11 02:05:50;;;;;;;27.75;25.15;;;15.90;99.90;;;;;;5024380;28;20182;-60
2021/07/11 02:08:16;;;;;;;26.87;24.47;;;15.90;99.90;;;;;;5030491;28;20198;-62
2021/07/11 02:10:47;;;;;;;27.43;24.93;;;15.90;99.90;;;;;;5029652;28;21099;-62
2021/07/11 02:13:31;;;;;;;27.97;25.37;;;15.90;99.90;;;;;;5030283;28;20185;-63
2021/07/11 02:16:02;;;;;;;27.17;24.57;;;15.90;99.90;;;;;;5029301;28;20432;-63
2021/07/11 02:18:28;;;;;;;27.10;24.70;;;15.80;99.90;;;;;;5029053;28;20549;-62
2021/07/11 02:20:56;;;;;;;28.53;26.03;;;15.80;99.90;;;;;;5024639;28;20516;-63
2021/07/11 02:23:23;;;;;;;29.55;26.92;;;15.70;99.90;;;;;;5030591;28;20432;-62
2021/07/11 02:25:49;;;;;;;28.37;25.73;;;15.60;99.90;;;;;;5028197;28;20654;-62
2021/07/11 02:28:17;;;;;;;28.40;25.80;;;15.60;99.90;;;;;;5030305;28;20431;-68
2021/07/11 02:30:56;;;;;;;26.60;24.17;;;15.60;99.90;;;;;;5030145;28;20429;-62
2021/07/11 02:33:36;;;;;;;27.30;24.73;;;15.60;99.90;;;;;;5029437;28;21001;-64
2021/07/11 02:36:04;;;;;;;27.33;24.90;;;15.70;99.90;;;;;;5016709;28;20424;-61
2021/07/11 02:39:01;;;;;;;26.23;23.93;;;15.70;99.90;;;;;;5031667;28;20425;-63
2021/07/11 02:41:29;;;;;;;25.17;22.90;;;15.60;99.90;;;;;;5020485;28;20456;-62
2021/07/11 02:43:57;;;;;;;25.97;23.60;;;15.70;99.90;;;;;;5032582;28;21296;-62
2021/07/11 02:46:32;;;;;;;26.65;24.05;;;15.70;99.90;;;;;;5032798;28;20413;-61
2021/07/11 02:49:01;;;;;;;26.73;24.27;;;15.70;99.90;;;;;;5033394;28;20192;-62
2021/07/11 02:51:30;;;;;;;24.63;22.43;;;15.70;99.90;;;;;;5031357;28;20418;-63
2021/07/11 02:53:59;;;;;;;24.83;22.47;;;15.70;99.90;;;;;;5032832;28;20841;-63
2021/07/11 02:56:27;;;;;;;23.97;21.57;;;15.70;99.90;;;;;;5031732;28;20429;-62
2021/07/11 02:58:57;;;;;;;26.20;23.80;;;15.70;99.90;;;;;;5031946;28;20918;-62
2021/07/11 03:01:25;;;;;;;25.30;23.00;;;15.70;99.90;;;;;;5030971;28;20518;-62
2021/07/11 03:03:53;;;;;;;26.30;23.80;;;15.70;99.90;;;;;;5031744;28;20861;-58
2021/07/11 03:06:18;;;;;;;24.60;22.40;;;15.70;99.90;;;;;;5028410;28;20901;-62
2021/07/11 03:08:44;;;;;;;25.80;23.27;;;15.70;99.90;;;;;;5031756;28;20467;-62
2021/07/11 03:11:11;;;;;;;25.00;22.60;;;15.70;99.90;;;;;;5031817;28;20626;-62
2021/07/11 03:13:38;;;;;;;23.20;21.20;;;15.60;99.90;;;;;;5018298;28;20262;-62
2021/07/11 03:16:05;;;;;;;24.90;22.75;;;15.60;99.90;;;;;;5031666;28;20427;-62
2021/07/11 03:18:34;;;;;;;25.27;23.00;;;15.50;99.90;;;;;;5031315;28;20473;-62
2021/07/11 03:21:00;;;;;;;24.23;22.00;;;15.50;99.90;;;;;;5029764;28;20523;-61
2021/07/11 03:23:27;;;;;;;23.93;21.83;;;15.50;99.90;;;;;;5031298;28;21087;-62
2021/07/11 03:25:53;;;;;;;24.47;22.23;;;15.50;99.90;;;;;;5031347;28;20769;-62
2021/07/11 03:28:20;;;;;;;25.13;22.83;;;15.50;99.90;;;;;;5029636;28;20417;-62
2021/07/11 03:30:48;;;;;;;23.80;21.60;;;15.50;99.90;;;;;;5018193;28;20482;-62
2021/07/11 03:33:15;;;;;;;23.33;21.35;;;15.50;99.90;;;;;;5030372;28;20423;-62
2021/07/11 03:35:48;;;;;;;23.70;21.60;;;15.50;99.90;;;;;;5029520;28;20183;-63
2021/07/11 03:38:18;;;;;;;24.87;22.47;;;15.60;99.90;;;;;;5031164;28;20441;-62
2021/07/11 03:40:47;;;;;;;23.20;21.07;;;15.60;99.90;;;;;;5013021;28;20453;-62
2021/07/11 03:43:15;;;;;;;22.70;20.70;;;15.60;99.90;;;;;;5025384;28;20459;-61
2021/07/11 03:45:44;;;;;;;23.00;20.90;;;15.60;99.90;;;;;;5030944;28;20195;-61
2021/07/11 03:48:20;;;;;;;24.60;22.30;;;15.70;99.90;;;;;;5027786;28;20507;-61
2021/07/11 03:50:49;;;;;;;22.37;20.50;;;15.70;99.90;;;;;;5031007;28;20423;-61
2021/07/11 03:53:19;;;;;;;22.77;20.37;;;15.80;99.90;;;;;;5030283;28;20425;-63
2021/07/11 03:55:47;;;;;;;22.87;20.53;;;15.80;99.90;;;;;;5027075;28;20474;-61
2021/07/11 03:58:13;;;;;;;22.57;20.67;;;15.90;99.90;;;;;;5029954;28;20471;-67
2021/07/11 04:00:40;;;;;;;20.80;18.90;;;15.90;99.90;;;;;;5028288;28;20463;-62
2021/07/11 04:03:07;;;;;;;21.70;19.83;;;15.90;99.90;;;;;;5030805;28;20673;-62
2021/07/11 04:05:38;;;;;;;20.80;18.90;;;16.00;99.90;;;;;;5026065;28;20438;-62
2021/07/11 04:08:09;;;;;;;20.57;18.77;;;16.00;99.90;;;;;;5029430;28;20452;-62
2021/07/11 04:10:36;;;;;;;20.40;18.60;;;16.10;99.90;;;;;;5028649;28;20792;-68
2021/07/11 04:13:02;;;;;;;21.15;18.95;;;16.10;99.90;;;;;;5026142;28;20455;-62
2021/07/11 04:15:31;;;;;;;20.30;18.50;;;16.20;99.90;;;;;;5030456;28;20184;-68
2021/07/11 04:18:03;;;;;;;19.90;18.00;;;16.30;99.90;;;;;;5026730;28;20217;-62
2021/07/11 04:20:30;;;;;;;19.10;17.23;;;16.40;99.90;;;;;;5030043;28;20467;-63
2021/07/11 04:22:58;;;;;;;19.90;17.80;;;16.40;99.90;;;;;;5030533;28;20508;-63
2021/07/11 04:25:24;;;;;;;19.63;17.93;;;16.60;99.90;;;;;;5026637;28;20931;-63
2021/07/11 04:27:53;;;;;;;18.07;16.47;;;16.60;99.90;;;;;;5028502;28;20759;-63
2021/07/11 04:30:20;;;;;;;18.27;16.80;;;16.60;99.90;;;;;;5030351;28;20429;-64
2021/07/11 04:32:45;;;;;;;17.83;16.30;;;16.60;99.90;;;;;;5029095;28;20429;-62
2021/07/11 04:35:11;;;;;;;18.03;16.63;;;16.70;99.90;;;;;;5028532;28;20439;-63
2021/07/11 04:37:37;;;;;;;16.80;15.17;;;16.80;99.90;;;;;;5029548;28;20178;-63
2021/07/11 04:40:03;;;;;;;17.00;15.50;;;16.90;99.90;;;;;;5029959;28;20456;-63
2021/07/11 04:42:29;;;;;;;18.03;16.20;;;17.00;99.90;;;;;;5018015;28;20191;-63
2021/07/11 04:44:54;;;;;;;17.87;15.60;;;16.90;99.90;;;;;;5029808;28;20479;-63
2021/07/11 04:47:20;;;;;;;17.17;15.70;;;17.00;99.90;;;;;;5027118;28;20181;-62
2021/07/11 04:49:46;;;;;;;16.57;15.17;;;17.00;99.90;;;;;;5029725;28;20194;-62
2021/07/11 04:52:11;;;;;;;16.70;15.27;;;17.20;99.90;;;;;;5029715;28;20256;-63
2021/07/11 04:54:37;;;;;;;15.67;14.47;;;17.10;95.70;;;;;;5028938;28;20197;-61
2021/07/11 04:57:03;;;;;;;16.70;15.10;;;17.10;98.00;;;;;;5029387;28;20188;-62
2021/07/11 04:59:30;;;;;;;14.68;13.55;;;17.30;95.70;;;;;;5026381;28;20202;-62
2021/07/11 05:01:55;;;;;;;15.47;14.10;;;17.40;92.40;;;;;;5028054;28;20264;-61
2021/07/11 05:04:21;;;;;;;15.63;14.27;;;17.50;90.10;;;;;;5029752;28;20445;-62
2021/07/11 05:06:46;;;;;;;16.03;14.80;;;17.50;85.20;;;;;;5022854;28;20182;-65
2021/07/11 05:09:12;;;;;;;15.40;14.20;;;17.50;89.80;;;;;;5028830;28;20185;-63
2021/07/11 05:11:37;;;;;;;14.10;13.00;;;17.60;90.40;;;;;;5028903;28;20179;-62
2021/07/11 05:14:04;;;;;;;14.63;13.33;;;17.60;91.80;;;;;;5029192;28;20191;-63
2021/07/11 05:16:30;;;;;;;14.90;13.57;;;17.60;91.10;;;;;;4993756;28;20182;-62
2021/07/11 05:18:56;;;;;;;14.23;12.90;;;17.70;87.20;;;;;;5028305;28;20424;-62
2021/07/11 05:21:22;;;;;;;13.97;12.80;;;17.80;90.20;;;;;;5029425;28;20210;-68
2021/07/11 05:23:48;;;;;;;13.20;12.00;;;17.90;88.40;;;;;;5017282;28;20232;-62
2021/07/11 05:26:13;;;;;;;13.07;12.07;;;18.00;82.10;;;;;;5029490;28;20178;-63
2021/07/11 05:28:44;;;;;;;12.30;11.40;;;18.20;77.90;;;;;;5010846;28;21324;-69
2021/07/11 05:31:10;;;;;;;10.90;10.00;;;18.40;59.10;;;;;;5029355;28;20175;-63
2021/07/11 05:33:36;;;;;;;11.57;10.63;;;18.40;49.80;;;;;;5019010;28;20429;-63
2021/07/11 05:36:01;;;;;;;11.30;10.40;;;18.60;52.40;;;;;;5011568;28;20798;-62
2021/07/11 05:38:27;;;;;;;11.03;10.10;;;18.70;44.60;;;;;;5027870;28;20197;-62
2021/07/11 05:40:53;;;;;;;10.20;9.40;;;18.90;40.90;;;;;;5039100;28;20311;-63
2021/07/11 05:43:18;;;;;;;9.93;9.13;;;19.10;30.80;;;;;;5027779;28;20570;-62
2021/07/11 05:45:44;;;;;;;9.30;8.50;;;19.30;22.80;;;;;;5028440;28;20751;-62
2021/07/11 05:48:10;;;;;;;9.50;8.70;;;19.40;15.60;;;;;;5027534;28;20641;-62
2021/07/11 05:50:35;;;;;;;9.50;8.70;;;19.60;9.40;;;;;;5028428;28;20196;-63
2021/07/11 05:53:01;;;;;;;8.20;7.50;;;19.70;1.00;;;;;;5028939;28;20190;-63
2021/07/11 05:55:27;;;;;;;8.27;7.53;;;19.80;1.00;;;;;;5027635;28;20210;-63
2021/07/11 05:57:52;;;;;;;7.80;7.20;;;20.00;1.00;;;;;;5028969;28;20267;-63
2021/07/11 06:00:19;;;;;;;8.40;7.80;;;20.20;1.00;;;;;;5027830;28;20199;-63
2021/07/11 06:02:44;;;;;;;7.97;7.47;;;20.10;1.00;;;;;;5019808;28;20703;-63
2021/07/11 06:05:10;;;;;;;8.80;8.10;;;20.10;1.00;;;;;;5028860;28;20514;-64
2021/07/11 06:07:36;;;;;;;8.73;7.83;;;20.30;1.00;;;;;;5022192;28;20252;-63
2021/07/11 06:10:06;;;;;;;8.27;7.70;;;20.50;1.00;;;;;;5010685;28;20432;-68
2021/07/11 06:12:33;;;;;;;8.03;7.50;;;20.60;1.00;;;;;;5029024;28;20799;-63
2021/07/11 06:14:58;;;;;;;8.20;7.60;;;20.40;1.00;;;;;;5032643;28;20756;-62
2021/07/11 06:17:24;;;;;;;8.00;7.50;;;20.50;1.00;;;;;;5014344;28;20533;-59
2021/07/11 06:19:49;;;;;;;8.73;8.13;;;20.50;1.00;;;;;;5031704;28;20210;-62
2021/07/11 06:22:15;;;;;;;8.53;7.83;;;20.30;1.00;;;;;;5033333;28;20179;-63
2021/07/11 06:24:41;;;;;;;9.57;8.77;;;20.30;1.00;;;;;;5032924;28;20851;-62
2021/07/11 06:27:06;;;;;;;9.27;8.57;;;20.30;1.00;;;;;;5032615;28;20170;-64
2021/07/11 06:29:32;;;;;;;8.70;8.00;;;20.50;1.00;;;;;;5029656;28;20183;-65
2021/07/11 06:31:58;;;;;;;8.90;8.20;;;20.50;1.00;;;;;;5032574;28;20180;-63
2021/07/11 06:34:23;;;;;;;8.53;7.87;;;20.70;1.00;;;;;;5030128;28;20587;-60
2021/07/11 06:36:49;;;;;;;8.70;8.00;;;20.90;1.00;;;;;;5013113;28;20172;-63
2021/07/11 06:39:15;;;;;;;8.10;7.40;;;21.00;1.00;;;;;;5031582;28;20644;-62
2021/07/11 06:41:40;;;;;;;8.27;7.67;;;21.10;1.00;;;;;;5022648;28;20202;-63
2021/07/11 06:44:06;;;;;;;7.90;7.30;;;21.20;1.00;;;;;;5031526;28;20413;-63
2021/07/11 06:46:31;;;;;;;7.93;7.43;;;21.20;1.00;;;;;;5030391;28;20286;-62
2021/07/11 06:48:57;;;;;;;7.80;7.30;;;21.20;1.00;;;;;;5031622;28;20236;-63
2021/07/11 06:51:22;;;;;;;7.20;6.70;;;21.30;1.00;;;;;;5023354;28;20266;-63
2021/07/11 06:53:48;;;;;;;7.20;6.73;;;21.50;1.00;;;;;;5028844;28;20182;-62
2021/07/11 06:56:14;;;;;;;7.40;6.80;;;21.50;1.00;;;;;;5029975;28;20179;-62
2021/07/11 06:58:39;;;;;;;6.87;6.47;;;21.60;1.00;;;;;;5031843;28;20214;-67
2021/07/11 07:01:05;;;;;;;7.77;7.27;;;21.70;1.00;;;;;;5030954;28;20218;-62
2021/07/11 07:03:30;;;;;;;7.87;7.30;;;21.60;1.00;;;;;;5022911;28;20191;-60
2021/07/11 07:05:56;;;;;;;6.63;6.07;;;21.60;1.00;;;;;;5026405;28;20240;-61
2021/07/11 07:08:24;;;;;;;7.20;6.70;;;21.70;1.00;;;;;;5024220;28;20183;-61
2021/07/11 07:10:49;;;;;;;6.70;6.30;;;21.80;1.00;;;;;;5025745;28;20232;-61
2021/07/11 07:13:15;;;;;;;6.17;5.77;;;21.90;1.00;;;;;;5031243;28;20453;-61
2021/07/11 07:15:40;;;;;;;6.50;6.07;;;22.00;1.00;;;;;;5013198;28;20186;-61
2021/07/11 07:18:07;;;;;;;6.50;6.10;;;22.30;1.00;;;;;;5028495;28;20214;-60
2021/07/11 07:20:32;;;;;;;6.40;6.00;;;22.30;99.90;;;;;;5031247;28;20218;-61
2021/07/11 07:22:58;;;;;;;6.80;6.40;;;22.50;99.90;;;;;;5028944;28;20456;-62
2021/07/11 07:25:24;;;;;;;7.13;6.63;;;22.60;99.90;;;;;;5031508;28;20176;-62
2021/07/11 07:27:49;;;;;;;6.10;5.80;;;22.70;56.70;;;;;;5030516;28;20182;-67
2021/07/11 07:30:18;;;;;;;5.67;5.37;;;22.90;1.00;;;;;;5028413;28;20232;-61
2021/07/11 07:32:45;;;;;;;6.10;5.70;;;22.90;99.90;;;;;;5030604;28;20193;-61
2021/07/11 07:35:11;;;;;;;6.30;5.90;;;22.90;1.00;;;;;;5030964;28;20525;-61
2021/07/11 07:37:37;;;;;;;5.77;5.47;;;23.00;99.90;;;;;;5029549;28;20520;-66
2021/07/11 07:40:04;;;;;;;6.20;5.73;;;22.90;1.00;;;;;;5030644;28;20219;-61
2021/07/11 07:42:31;;;;;;;6.50;5.90;;;22.90;1.00;;;;;;5031112;28;20637;-61
2021/07/11 07:44:57;;;;;;;6.03;5.50;;;23.00;99.90;;;;;;5031390;28;20467;-61
2021/07/11 07:47:23;;;;;;;5.80;5.40;;;23.20;99.90;;;;;;5018101;28;20426;-62
2021/07/11 07:49:49;;;;;;;6.47;6.07;;;23.40;38.40;;;;;;5029606;28;20190;-62
2021/07/11 07:52:14;;;;;;;5.57;5.27;;;23.50;61.30;;;;;;5011747;28;20213;-62
2021/07/11 07:54:40;;;;;;;5.87;5.37;;;23.70;1.00;;;;;;5031008;28;20269;-62
2021/07/11 07:57:05;;;;;;;5.90;5.60;;;23.90;1.00;;;;;;5028820;28;20622;-65
2021/07/11 07:59:31;;;;;;;6.10;5.67;;;24.00;1.00;;;;;;5020041;28;20305;-61
2021/07/11 08:01:56;;;;;;;5.57;5.17;;;24.10;99.90;;;;;;5012197;28;20265;-62
2021/07/11 08:04:22;;;;;;;5.93;5.63;;;24.30;99.90;;;;;;5013223;28;20183;-62
2021/07/11 08:06:48;;;;;;;6.23;5.83;;;24.40;1.00;;;;;;5029805;28;20217;-62
2021/07/11 08:09:16;;;;;;;6.03;5.73;;;24.60;1.00;;;;;;5029659;28;20185;-61
2021/07/11 08:11:42;;;;;;;6.00;5.60;;;24.70;99.90;;;;;;5027607;28;20447;-59
2021/07/11 08:14:08;;;;;;;6.97;6.37;;;24.80;99.90;;;;;;5029791;28;20425;-61
2021/07/11 08:16:33;;;;;;;6.72;6.32;;;24.90;99.90;;;;;;5030583;28;20421;-61
2021/07/11 08:18:59;;;;;;;5.90;5.50;;;25.10;1.00;;;;;;5017992;28;20187;-60
2021/07/11 08:21:25;;;;;;;6.00;5.60;;;25.20;41.00;;;;;;5029681;28;20206;-54
2021/07/11 08:23:50;;;;;;;5.67;5.37;;;25.30;99.90;;;;;;5027414;28;20268;-51
2021/07/11 08:26:16;;;;;;;5.60;5.30;;;25.50;1.00;;;;;;5027810;28;20281;-52
2021/07/11 08:28:41;;;;;;;6.53;6.13;;;25.70;99.90;;;;;;5029004;28;20261;-54
2021/07/11 08:31:07;;;;;;;5.97;5.67;;;25.80;99.90;;;;;;5024057;28;20291;-53
2021/07/11 08:33:33;;;;;;;5.90;5.60;;;25.90;1.00;;;;;;5029504;28;20202;-53
2021/07/11 08:35:59;;;;;;;5.37;5.07;;;26.10;99.90;;;;;;5028857;28;20285;-55
2021/07/11 08:38:24;;;;;;;5.37;5.07;;;26.20;99.90;;;;;;5028702;28;20179;-53
2021/07/11 08:40:50;;;;;;;5.90;5.50;;;26.30;99.90;;;;;;5029556;28;20460;-50
2021/07/11 08:43:16;;;;;;;5.57;5.27;;;26.40;99.90;;;;;;5024787;28;20531;-54
2021/07/11 08:45:42;;;;;;;5.53;5.23;;;26.60;99.90;;;;;;5029197;28;20198;-54
2021/07/11 08:48:10;;;;;;;5.50;5.30;;;26.70;1.00;;;;;;5029244;28;20987;-53
2021/07/11 08:50:36;;;;;;;5.87;5.57;;;26.90;1.00;;;;;;5022559;28;20255;-51
2021/07/11 08:53:03;;;;;;;5.87;5.57;;;27.00;1.00;;;;;;5027496;28;20899;-50
2021/07/11 08:55:29;;;;;;;6.15;5.85;;;26.80;1.00;;;;;;5023258;28;20190;-53
2021/07/11 08:57:59;;;;;;;6.43;6.13;;;26.80;1.00;;;;;;5023386;28;20308;-49
2021/07/11 09:00:31;;;;;;;5.83;5.43;;;26.80;1.00;;;;;;5028105;28;21289;-52
2021/07/11 09:02:57;;;;;;;5.73;5.43;;;26.90;1.00;;;;;;5028856;28;21132;-54
2021/07/11 09:05:27;;;;;;;5.87;5.57;;;27.20;1.00;;;;;;5016777;28;20428;-54
2021/07/11 09:07:56;;;;;;;5.83;5.53;;;27.40;1.00;;;;;;5028931;28;20695;-53
2021/07/11 09:10:29;;;;;;;6.00;5.70;;;27.60;1.00;;;;;;5026770;28;20425;-49
2021/07/11 09:12:54;;;;;;;5.90;5.60;;;27.70;1.00;;;;;;5028309;28;20539;-53
2021/07/11 09:15:34;;;;;;;5.32;5.03;;;28.00;1.00;;;;;;5027982;28;20527;-49
2021/07/11 09:18:00;;;;;;;5.90;5.60;;;28.20;1.00;;;;;;5029005;28;20788;-53
2021/07/11 09:20:26;;;;;;;5.23;4.93;;;28.30;1.00;;;;;;5026808;28;20460;-54
2021/07/11 09:23:00;;;;;;;5.97;5.60;;;28.40;1.00;;;;;;5028374;28;20204;-49
2021/07/11 09:25:26;;;;;;;6.00;5.70;;;28.30;1.00;;;;;;5028676;28;20879;-53
2021/07/11 09:27:51;;;;;;;5.80;5.50;;;28.30;1.00;;;;;;5027853;28;20448;-53
2021/07/11 09:30:18;;;;;;;6.30;5.90;;;28.20;1.00;;;;;;5028521;28;20174;-54
2021/07/11 09:32:44;;;;;;;5.80;5.50;;;28.40;1.00;;;;;;5026936;28;20181;-53
2021/07/11 09:35:18;;;;;;;5.70;5.40;;;28.70;1.00;;;;;;5022493;28;20439;-52
2021/07/11 09:37:58;;;;;;;5.83;5.53;;;28.90;1.00;;;;;;5028316;28;20899;-52
2021/07/11 09:40:25;;;;;;;5.90;5.60;;;29.30;1.00;;;;;;5027644;28;20464;-54
2021/07/11 09:42:55;;;;;;;6.00;5.50;;;29.60;1.00;;;;;;5028362;28;20186;-54
2021/07/11 09:45:29;;;;;;;6.13;5.83;;;29.50;99.90;;;;;;5028307;28;20879;-54
2021/07/11 09:48:14;;;;;;;6.33;6.03;;;29.70;99.90;;;;;;5027490;28;20455;-54
2021/07/11 09:50:41;;;;;;;6.10;5.70;;;30.00;99.90;;;;;;5020546;28;20475;-52
2021/07/11 09:53:08;;;;;;;6.23;5.93;;;30.20;99.90;;;;;;5027373;28;20752;-55
2021/07/11 09:55:36;;;;;;;5.80;5.50;;;30.40;99.90;;;;;;5016415;28;20811;-53
2021/07/11 09:58:05;;;;;;;6.30;6.00;;;30.60;99.90;;;;;;5027248;28;20424;-54
2021/07/11 10:00:42;;;;;;;6.40;6.10;;;30.70;99.90;;;;;;5025652;28;20468;-54
2021/07/11 10:03:11;;;;;;;6.10;5.80;;;30.80;99.90;;;;;;5027350;28;20432;-54
2021/07/11 10:05:37;;;;;;;5.97;5.70;;;30.70;99.90;;;;;;5009666;28;21180;-55
2021/07/11 10:08:04;;;;;;;6.13;5.83;;;30.90;99.90;;;;;;5023590;28;20433;-52
2021/07/11 10:10:32;;;;;;;6.30;6.00;;;31.00;99.90;;;;;;5027668;28;20428;-55
2021/07/11 10:12:59;;;;;;;6.13;5.83;;;31.00;99.90;;;;;;5028131;28;20432;-54
2021/07/11 10:15:29;;;;;;;6.33;6.03;;;31.10;99.90;;;;;;5027577;28;20448;-54
2021/07/11 10:18:03;;;;;;;5.93;5.63;;;31.30;99.90;;;;;;5027942;28;20492;-51
2021/07/11 10:20:36;;;;;;;5.97;5.67;;;31.20;99.90;;;;;;5026321;28;20969;-57
2021/07/11 10:23:03;;;;;;;5.60;5.40;;;31.30;99.90;;;;;;5027731;28;20411;-54
2021/07/11 10:25:30;;;;;;;5.80;5.60;;;31.50;99.90;;;;;;5027072;28;20433;-53
2021/07/11 10:28:10;;;;;;;6.23;5.83;;;31.40;99.90;;;;;;5025101;28;20436;-55
2021/07/11 10:30:44;;;;;;;5.90;5.60;;;31.10;99.90;;;;;;5026524;28;20421;-53
2021/07/11 10:33:22;;;;;;;6.10;5.80;;;31.10;99.90;;;;;;5015188;28;20879;-56
2021/07/11 10:36:02;;;;;;;6.40;6.10;;;31.20;99.90;;;;;;5021076;28;20848;-55
2021/07/11 10:38:43;;;;;;;6.10;5.80;;;31.30;99.90;;;;;;5006188;28;20425;-54
2021/07/11 10:41:17;;;;;;;5.70;5.40;;;31.50;99.90;;;;;;5026866;28;20464;-52
2021/07/11 10:43:59;;;;;;;6.00;5.70;;;31.70;99.90;;;;;;5023493;28;20826;-52
2021/07/11 10:46:35;;;;;;;6.40;6.07;;;31.80;99.90;;;;;;5027355;28;20175;-54
2021/07/11 10:49:31;;;;;;;6.03;5.73;;;31.70;99.90;;;;;;5027391;28;20186;-54
2021/07/11 10:52:20;;;;;;;6.30;6.00;;;31.90;99.90;;;;;;5027230;28;20868;-56
2021/07/11 10:54:51;;;;;;;6.60;6.30;;;32.10;99.90;;;;;;5021431;28;20977;-55
2021/07/11 10:57:35;;;;;;;5.87;5.67;;;32.20;99.90;;;;;;5021057;28;20448;-53
2021/07/11 11:00:09;;;;;;;6.35;6.05;;;32.10;99.90;;;;;;5029390;28;20465;-52
2021/07/11 11:02:36;;;;;;;5.90;5.60;;;32.10;99.90;;;;;;5030441;28;20182;-55
2021/07/11 11:05:20;;;;;;;6.40;5.90;;;32.00;99.90;;;;;;5030396;28;20417;-54
2021/07/11 11:07:54;;;;;;;6.93;6.57;;;32.10;99.90;;;;;;5030626;28;20418;-52
2021/07/11 11:10:22;;;;;;;6.67;6.30;;;32.00;99.90;;;;;;5030801;28;20425;-56
2021/07/11 11:13:00;;;;;;;7.00;6.60;;;31.70;99.90;;;;;;5029530;28;20421;-55
2021/07/11 11:15:33;;;;;;;7.17;6.77;;;31.40;99.90;;;;;;5028011;28;20425;-55
2021/07/11 11:18:33;;;;;;;6.47;6.10;;;31.20;99.90;;;;;;5029336;28;20602;-54
2021/07/11 11:21:03;;;;;;;6.80;6.50;;;31.20;99.90;;;;;;5017172;28;20519;-55
2021/07/11 11:23:54;;;;;;;6.17;5.87;;;31.10;99.90;;;;;;5029121;28;20423;-51
2021/07/11 11:26:26;;;;;;;6.50;6.20;;;31.00;99.90;;;;;;5028454;28;20987;-51
2021/07/11 11:28:55;;;;;;;5.70;5.50;;;31.10;99.90;;;;;;5028835;28;20421;-55
2021/07/11 11:31:31;;;;;;;6.60;6.30;;;31.20;99.90;;;;;;5026341;28;21172;-51
2021/07/11 11:34:17;;;;;;;5.90;5.60;;;31.30;99.90;;;;;;5028794;28;20441;-55
2021/07/11 11:36:45;;;;;;;6.07;5.77;;;31.30;99.90;;;;;;5028883;28;20420;-52
2021/07/11 11:39:17;;;;;;;6.80;6.50;;;31.40;99.90;;;;;;5029374;28;20410;-55
2021/07/11 11:41:42;;;;;;;6.47;6.17;;;31.40;99.90;;;;;;5026150;28;20465;-52
2021/07/11 11:44:10;;;;;;;6.60;6.30;;;31.50;99.90;;;;;;5028668;28;20413;-53
2021/07/11 11:46:36;;;;;;;6.57;6.27;;;31.60;99.90;;;;;;5028599;28;20614;-50
2021/07/11 11:49:06;;;;;;;6.63;6.33;;;31.90;99.90;;;;;;5028483;28;20499;-55
2021/07/11 11:51:32;;;;;;;7.20;6.70;;;32.00;99.90;;;;;;5027979;28;20416;-55
2021/07/11 11:53:58;;;;;;;6.23;5.93;;;32.10;99.90;;;;;;5029200;28;21076;-53
2021/07/11 11:56:24;;;;;;;6.30;6.00;;;32.30;99.90;;;;;;5027820;28;20453;-55
2021/07/11 11:59:02;;;;;;;6.15;5.85;;;32.50;99.90;;;;;;5029211;28;20487;-50
2021/07/11 12:01:33;;;;;;;6.07;5.77;;;32.40;99.90;;;;;;5023787;28;20723;-55
2021/07/11 12:04:15;;;;;;;6.10;5.80;;;32.40;99.90;;;;;;5026308;28;20765;-54
2021/07/11 12:06:46;;;;;;;6.50;6.10;;;32.50;99.90;;;;;;5024252;28;20440;-55
2021/07/11 12:09:11;;;;;;;6.32;6.03;;;32.30;99.90;;;;;;5025934;28;20417;-56
2021/07/11 12:11:38;;;;;;;6.27;5.97;;;32.30;99.90;;;;;;5023692;28;20210;-54
2021/07/11 12:14:25;;;;;;;7.13;6.83;;;32.10;99.90;;;;;;5032042;28;20876;-53
2021/07/11 12:16:59;;;;;;;7.67;7.17;;;31.90;99.90;;;;;;5023211;28;20919;-52
2021/07/11 12:19:25;;;;;;;6.97;6.67;;;31.80;99.90;;;;;;5028992;28;20776;-54
2021/07/11 12:21:53;;;;;;;6.93;6.53;;;31.50;99.90;;;;;;5025919;28;20406;-54
2021/07/11 12:24:23;;;;;;;7.60;7.20;;;31.60;99.90;;;;;;5026715;28;20930;-55
2021/07/11 12:26:59;;;;;;;7.10;6.80;;;31.80;99.90;;;;;;5023174;28;20430;-57
2021/07/11 12:29:31;;;;;;;6.30;6.00;;;31.70;99.90;;;;;;5025634;28;20463;-55
2021/07/11 12:32:00;;;;;;;6.57;6.28;;;31.90;99.90;;;;;;5023351;28;20413;-56
2021/07/11 12:34:26;;;;;;;6.60;6.30;;;32.40;99.90;;;;;;5026293;28;20201;-56
2021/07/11 12:36:57;;;;;;;7.10;6.80;;;32.60;99.90;;;;;;5026024;28;20431;-55
2021/07/11 12:39:24;;;;;;;6.70;6.40;;;33.00;99.90;;;;;;5025231;28;20785;-53
2021/07/11 12:41:51;;;;;;;6.50;6.20;;;32.90;99.90;;;;;;5028429;28;20465;-54
2021/07/11 12:44:18;;;;;;;6.63;6.27;;;33.00;99.90;;;;;;5025412;28;20789;-55
2021/07/11 12:46:44;;;;;;;9.13;8.63;;;33.30;99.90;;;;;;5023361;28;20542;-57
2021/07/11 12:49:13;;;;;;;8.97;8.53;;;33.50;99.90;;;;;;5022956;28;20445;-55